createdAt,value
2022-09-12T00:01:50.105Z,26.40
2022-09-12T00:04:17.058Z,29.25
2022-09-12T00:06:43.990Z,28.73
2022-09-12T00:09:13.740Z,29.25
2022-09-12T00:11:44.254Z,27.52
2022-09-12T00:14:17.181Z,26.40
2022-09-12T00:16:44.204Z,27.27
2022-09-12T00:19:12.148Z,29.13
2022-09-12T00:21:40.546Z,27.38
2022-09-12T00:24:08.040Z,28.08
2022-09-12T00:26:35.580Z,28.90
2022-09-12T00:29:02.447Z,27.95
2022-09-12T00:31:29.401Z,27.17
2022-09-12T00:33:58.769Z,29.25
2022-09-12T00:36:27.063Z,28.48
2022-09-12T00:38:54.666Z,31.00
2022-09-12T00:41:26.002Z,25.55
2022-09-12T00:43:56.629Z,31.33
2022-09-12T00:47:08.751Z,27.77
2022-09-12T00:49:46.908Z,29.83
2022-09-12T00:52:18.267Z,28.53
2022-09-12T00:54:51.176Z,27.48
2022-09-12T00:57:20.976Z,27.83
2022-09-12T00:59:52.928Z,30.60
2022-09-12T01:02:19.930Z,29.35
2022-09-12T01:04:47.876Z,28.97
2022-09-12T01:07:15.368Z,29.67
2022-09-12T01:09:44.127Z,28.30
2022-09-12T01:12:13.526Z,29.40
2022-09-12T01:14:40.333Z,31.40
2022-09-12T01:17:07.104Z,30.10
2022-09-12T01:19:42.518Z,28.42
2022-09-12T01:22:27.845Z,27.83
2022-09-12T01:25:12.645Z,29.83
2022-09-12T01:27:50.351Z,31.60
2022-09-12T01:31:04.401Z,31.50
2022-09-12T01:33:55.885Z,29.35
2022-09-12T01:36:45.928Z,31.67
2022-09-12T01:39:35.701Z,33.63
2022-09-12T01:42:26.844Z,31.00
2022-09-12T01:44:59.631Z,31.77
2022-09-12T01:47:32.167Z,33.42
2022-09-12T01:50:15.267Z,34.50
2022-09-12T01:53:08.806Z,32.53
2022-09-12T01:55:44.197Z,34.60
2022-09-12T01:58:29.166Z,32.07
2022-09-12T02:01:21.775Z,32.13
2022-09-12T02:03:53.696Z,33.33
2022-09-12T02:06:44.237Z,34.60
2022-09-12T02:09:18.303Z,34.03
2022-09-12T02:11:46.190Z,32.90
2022-09-12T02:14:24.230Z,38.00
2022-09-12T02:16:58.832Z,35.17
2022-09-12T02:19:30.971Z,35.20
2022-09-12T02:22:04.290Z,33.83
2022-09-12T02:24:39.942Z,33.47
2022-09-12T02:27:15.399Z,31.95
2022-09-12T02:29:44.646Z,38.63
2022-09-12T02:32:45.313Z,37.17
2022-09-12T02:35:25.523Z,34.72
2022-09-12T02:38:08.710Z,35.10
2022-09-12T02:40:36.588Z,42.17
2022-09-12T02:43:05.586Z,35.42
2022-09-12T02:45:34.351Z,36.15
2022-09-12T02:48:19.560Z,37.38
2022-09-12T02:50:46.811Z,36.20
2022-09-12T02:53:14.064Z,38.90
2022-09-12T02:55:42.833Z,39.78
2022-09-12T02:58:16.066Z,40.65
2022-09-12T03:01:16.391Z,36.67
2022-09-12T03:04:02.628Z,42.10
2022-09-12T03:06:40.376Z,41.50
2022-09-12T03:09:18.542Z,42.72
2022-09-12T03:12:10.766Z,44.20
2022-09-12T03:15:07.340Z,43.42
2022-09-12T03:17:50.977Z,41.10
2022-09-12T03:20:45.634Z,40.08
2022-09-12T03:23:33.091Z,45.85
2022-09-12T03:26:09.354Z,43.83
2022-09-12T03:28:39.287Z,38.55
2022-09-12T03:31:15.158Z,39.73
2022-09-12T03:33:42.345Z,42.85
2022-09-12T03:36:19.477Z,46.55
2022-09-12T03:38:46.300Z,38.92
2022-09-12T03:41:13.333Z,40.40
2022-09-12T03:43:40.158Z,40.40
2022-09-12T03:46:07.277Z,42.97
2022-09-12T03:48:34.164Z,40.33
2022-09-12T03:51:06.580Z,40.88
2022-09-12T03:53:33.685Z,43.70
2022-09-12T03:56:00.866Z,39.23
2022-09-12T03:58:30.972Z,39.22
2022-09-12T04:00:58.036Z,39.20
2022-09-12T04:03:24.847Z,42.42
2022-09-12T04:05:51.593Z,41.10
2022-09-12T04:08:18.339Z,44.43
2022-09-12T04:10:45.064Z,46.28
2022-09-12T04:13:11.983Z,43.08
2022-09-12T04:15:38.760Z,40.40
2022-09-12T04:18:06.251Z,44.65
2022-09-12T04:20:33.316Z,41.03
2022-09-12T04:23:00.013Z,41.95
2022-09-12T04:25:28.276Z,41.65
2022-09-12T04:27:55.068Z,41.13
2022-09-12T04:30:21.830Z,44.47
2022-09-12T04:32:48.655Z,44.70
2022-09-12T04:35:15.560Z,40.92
2022-09-12T04:37:42.363Z,44.25
2022-09-12T04:40:09.539Z,43.65
2022-09-12T04:42:36.287Z,40.22
2022-09-12T04:45:03.653Z,45.57
2022-09-12T04:47:30.420Z,42.58
2022-09-12T04:49:57.131Z,42.63
2022-09-12T04:52:24.104Z,39.72
2022-09-12T04:54:50.845Z,42.30
2022-09-12T04:57:17.682Z,42.40
2022-09-12T04:59:44.555Z,42.00
2022-09-12T05:02:11.321Z,40.40
2022-09-12T05:04:38.144Z,42.47
2022-09-12T05:07:05.790Z,38.67
2022-09-12T05:09:32.627Z,39.57
2022-09-12T05:12:04.949Z,41.55
2022-09-12T05:14:33.551Z,39.17
2022-09-12T05:17:01.666Z,37.28
2022-09-12T05:19:30.603Z,40.90
2022-09-12T05:21:57.941Z,36.67
2022-09-12T05:24:24.902Z,43.00
2022-09-12T05:26:51.842Z,39.08
2022-09-12T05:29:18.969Z,42.83
2022-09-12T05:31:45.839Z,41.58
2022-09-12T05:34:12.679Z,39.67
2022-09-12T05:36:39.557Z,38.95
2022-09-12T05:39:06.326Z,37.88
2022-09-12T05:41:34.030Z,38.70
2022-09-12T05:44:03.305Z,39.00
2022-09-12T05:46:32.276Z,40.00
2022-09-12T05:49:05.428Z,38.85
2022-09-12T05:51:34.703Z,39.25
2022-09-12T05:54:06.230Z,43.90
2022-09-12T05:56:34.604Z,41.83
2022-09-12T05:59:05.714Z,44.73
2022-09-12T06:01:34.999Z,43.47
2022-09-12T06:04:04.933Z,41.55
2022-09-12T06:06:36.214Z,41.65
2022-09-12T06:09:04.640Z,39.17
2022-09-12T06:11:33.408Z,39.20
2022-09-12T06:14:00.510Z,41.38
2022-09-12T06:16:30.666Z,43.80
2022-09-12T06:19:00.382Z,40.95
2022-09-12T06:21:28.397Z,42.80
2022-09-12T06:23:55.650Z,42.63
2022-09-12T06:26:26.181Z,42.30
2022-09-12T06:28:54.644Z,42.30
2022-09-12T06:31:25.248Z,43.40
2022-09-12T06:33:53.770Z,40.20
2022-09-12T06:36:23.260Z,42.37
2022-09-12T06:38:56.129Z,40.38
2022-09-12T06:41:24.323Z,41.58
2022-09-12T06:43:51.080Z,42.30
2022-09-12T06:46:18.911Z,40.20
2022-09-12T06:48:46.275Z,42.93
2022-09-12T06:51:14.934Z,40.28
2022-09-12T06:53:43.130Z,39.45
2022-09-12T06:56:21.272Z,37.13
2022-09-12T06:58:49.421Z,41.00
2022-09-12T07:01:18.597Z,39.87
2022-09-12T07:03:51.027Z,40.60
2022-09-12T07:06:19.814Z,38.10
2022-09-12T07:08:47.503Z,40.03
2022-09-12T07:11:20.951Z,99.63
2022-09-12T07:13:53.670Z,67.17
2022-09-12T07:16:20.786Z,58.58
2022-09-12T07:18:56.570Z,43.33
2022-09-12T07:21:23.793Z,33.70
2022-09-12T07:23:55.302Z,35.03
2022-09-12T07:26:22.355Z,31.63
2022-09-12T07:28:54.055Z,35.53
2022-09-12T07:31:23.567Z,31.80
2022-09-12T07:33:54.426Z,31.80
2022-09-12T07:36:23.876Z,29.80
2022-09-12T07:38:57.366Z,30.07
2022-09-12T07:41:26.765Z,27.58
2022-09-12T07:43:54.995Z,30.10
2022-09-12T07:46:22.387Z,31.13
2022-09-12T07:49:08.531Z,28.05
2022-09-12T07:51:35.878Z,33.43
2022-09-12T07:54:03.590Z,29.85
2022-09-12T07:56:33.642Z,75.95
2022-09-12T07:59:02.898Z,50.15
2022-09-12T08:01:29.858Z,41.33
2022-09-12T08:03:58.704Z,26.90
2022-09-12T08:06:27.149Z,24.40
2022-09-12T08:08:58.635Z,25.95
2022-09-12T08:11:28.107Z,21.95
2022-09-12T08:13:57.176Z,21.60
2022-09-12T08:16:27.201Z,23.07
2022-09-12T08:18:54.011Z,26.83
2022-09-12T08:21:26.302Z,22.77
2022-09-12T08:23:55.414Z,23.23
2022-09-12T08:26:23.465Z,21.50
2022-09-12T08:28:51.192Z,21.23
2022-09-12T08:31:20.754Z,19.95
2022-09-12T08:33:48.152Z,19.27
2022-09-12T08:36:21.258Z,20.35
2022-09-12T08:38:50.677Z,18.55
2022-09-12T08:41:44.487Z,15.57
2022-09-12T08:44:17.334Z,18.08
2022-09-12T08:46:56.948Z,17.35
2022-09-12T08:49:34.215Z,17.48
2022-09-12T08:52:13.193Z,16.90
2022-09-12T08:54:40.051Z,18.10
2022-09-12T08:57:11.730Z,19.90
2022-09-12T08:59:41.177Z,21.08
2022-09-12T09:02:31.130Z,18.35
2022-09-12T09:05:15.168Z,16.40
2022-09-12T09:08:07.324Z,15.60
2022-09-12T09:10:55.677Z,16.45
2022-09-12T09:14:16.000Z,15.65
2022-09-12T09:16:46.758Z,17.38
2022-09-12T09:19:29.752Z,15.95
2022-09-12T09:22:07.955Z,15.77
2022-09-12T09:24:42.748Z,15.25
2022-09-12T09:27:36.825Z,17.27
2022-09-12T09:30:03.170Z,16.85
2022-09-12T09:32:41.092Z,16.38
2022-09-12T09:35:38.855Z,14.73
2022-09-12T09:38:15.474Z,14.93
2022-09-12T09:40:46.267Z,15.13
2022-09-12T09:43:18.440Z,13.80
2022-09-12T09:45:47.822Z,14.93
2022-09-12T09:48:17.736Z,14.60
2022-09-12T09:50:48.935Z,12.98
2022-09-12T09:53:32.038Z,15.90
2022-09-12T09:56:01.659Z,16.27
2022-09-12T09:58:34.218Z,14.82
2022-09-12T10:01:16.433Z,13.67
2022-09-12T10:03:51.972Z,12.27
2022-09-12T10:06:32.832Z,11.02
2022-09-12T10:09:20.223Z,14.57
2022-09-12T10:11:48.105Z,11.55
2022-09-12T10:14:35.062Z,9.43
2022-09-12T10:17:04.245Z,10.90
2022-09-12T10:19:40.179Z,10.75
2022-09-12T10:22:14.808Z,10.45
2022-09-12T10:24:47.126Z,11.00
2022-09-12T10:27:20.484Z,10.43
2022-09-12T10:29:53.620Z,13.05
2022-09-12T10:32:38.622Z,9.20
2022-09-12T10:35:30.470Z,9.82
2022-09-12T10:38:02.312Z,9.48
2022-09-12T10:40:32.714Z,7.93
2022-09-12T10:43:00.516Z,10.75
2022-09-12T10:45:36.051Z,9.00
2022-09-12T10:48:24.327Z,8.50
2022-09-12T10:50:51.856Z,8.45
2022-09-12T10:53:22.239Z,8.63
2022-09-12T10:56:06.876Z,8.45
2022-09-12T10:58:44.912Z,8.00
2022-09-12T11:01:45.198Z,8.75
2022-09-12T11:04:47.026Z,7.70
2022-09-12T11:07:32.715Z,8.27
2022-09-12T11:10:25.225Z,9.35
2022-09-12T11:13:15.691Z,10.13
2022-09-12T11:15:57.546Z,9.02
2022-09-12T11:18:52.547Z,8.70
2022-09-12T11:21:34.482Z,8.23
2022-09-12T11:24:04.313Z,6.82
2022-09-12T11:26:49.727Z,8.20
2022-09-12T11:29:28.432Z,6.30
2022-09-12T11:32:37.495Z,7.05
2022-09-12T11:35:17.233Z,7.70
2022-09-12T11:38:21.201Z,7.57
2022-09-12T11:40:55.866Z,7.25
2022-09-12T11:43:28.542Z,9.95
2022-09-12T11:45:57.501Z,7.57
2022-09-12T11:48:33.130Z,9.00
2022-09-12T11:51:02.856Z,6.07
2022-09-12T11:53:36.162Z,7.20
2022-09-12T11:56:06.693Z,7.18
2022-09-12T11:58:33.642Z,6.20
2022-09-12T12:01:20.875Z,6.40
2022-09-12T12:03:48.762Z,6.30
2022-09-12T12:06:23.727Z,5.95
2022-09-12T12:08:50.694Z,7.13
2022-09-12T12:11:41.519Z,5.28
2022-09-12T12:14:17.660Z,4.90
2022-09-12T12:16:45.072Z,6.50
2022-09-12T12:19:14.798Z,5.50
2022-09-12T12:21:45.372Z,8.13
2022-09-12T12:24:14.235Z,5.55
2022-09-12T12:26:40.924Z,5.20
2022-09-12T12:29:16.504Z,5.70
2022-09-12T12:32:04.075Z,6.43
2022-09-12T12:34:36.546Z,6.25
2022-09-12T12:37:22.051Z,4.72
2022-09-12T12:40:08.260Z,5.37
2022-09-12T12:42:35.086Z,5.28
2022-09-12T12:45:17.859Z,6.60
2022-09-12T12:47:47.716Z,5.70
2022-09-12T12:50:26.153Z,8.63
2022-09-12T12:53:05.451Z,5.37
2022-09-12T12:55:35.375Z,6.88
2022-09-12T12:58:03.875Z,5.03
2022-09-12T13:00:39.089Z,5.82
2022-09-12T13:03:06.615Z,6.38
2022-09-12T13:05:46.289Z,6.07
2022-09-12T13:08:18.919Z,6.40
2022-09-12T13:10:52.481Z,5.57
2022-09-12T13:13:58.719Z,5.38
2022-09-12T13:16:36.049Z,5.75
2022-09-12T13:19:18.100Z,4.07
2022-09-12T13:22:03.207Z,5.00
2022-09-12T13:24:31.027Z,4.03
2022-09-12T13:26:57.901Z,6.03
2022-09-12T13:29:27.434Z,5.47
2022-09-12T13:32:00.644Z,4.27
2022-09-12T13:34:29.591Z,4.75
2022-09-12T13:37:05.748Z,6.32
2022-09-12T13:39:50.798Z,5.00
2022-09-12T13:42:20.615Z,7.13
2022-09-12T13:44:58.304Z,5.73
2022-09-12T13:47:32.303Z,5.20
2022-09-12T13:50:00.739Z,5.15
2022-09-12T13:52:33.356Z,5.90
2022-09-12T13:55:02.017Z,4.82
2022-09-12T13:57:37.674Z,4.47
2022-09-12T14:00:24.758Z,4.47
2022-09-12T14:03:14.194Z,6.28
2022-09-12T14:05:44.107Z,5.75
2022-09-12T14:08:14.975Z,4.85
2022-09-12T14:10:47.672Z,5.33
2022-09-12T14:13:18.606Z,4.70
2022-09-12T14:15:48.715Z,4.85
2022-09-12T14:18:27.767Z,5.35
2022-09-12T14:20:57.495Z,5.32
2022-09-12T14:23:31.114Z,4.90
2022-09-12T14:26:00.053Z,5.15
2022-09-12T14:28:31.091Z,4.68
2022-09-12T14:31:18.382Z,6.53
2022-09-12T14:33:48.568Z,4.85
2022-09-12T14:36:26.181Z,4.53
2022-09-12T14:39:03.771Z,5.60
2022-09-12T14:41:41.760Z,4.47
2022-09-12T14:44:15.326Z,4.40
2022-09-12T14:46:44.435Z,5.50
2022-09-12T14:49:22.642Z,6.97
2022-09-12T14:51:56.338Z,4.32
2022-09-12T14:54:29.187Z,4.20
2022-09-12T14:57:05.861Z,5.22
2022-09-12T14:59:35.500Z,3.88
2022-09-12T15:02:22.097Z,5.17
2022-09-12T15:05:12.045Z,4.03
2022-09-12T15:07:50.885Z,5.20
2022-09-12T15:10:24.055Z,5.82
2022-09-12T15:13:03.195Z,5.50
2022-09-12T15:15:30.035Z,7.47
2022-09-12T15:17:57.108Z,4.32
2022-09-12T15:20:24.213Z,4.30
2022-09-12T15:22:51.557Z,6.60
2022-09-12T15:25:18.576Z,5.28
2022-09-12T15:27:50.151Z,4.10
2022-09-12T15:30:16.991Z,5.00
2022-09-12T15:32:44.772Z,5.28
2022-09-12T15:35:21.082Z,3.00
2022-09-12T15:37:48.588Z,4.20
2022-09-12T15:40:15.930Z,4.90
2022-09-12T15:42:42.962Z,8.18
2022-09-12T15:45:19.929Z,4.00
2022-09-12T15:47:46.901Z,3.55
2022-09-12T15:50:14.078Z,3.75
2022-09-12T15:52:41.359Z,6.67
2022-09-12T15:55:29.803Z,4.18
2022-09-12T15:57:56.619Z,4.10
2022-09-12T16:00:23.587Z,3.97
2022-09-12T16:02:52.910Z,4.93
2022-09-12T16:05:25.440Z,5.00
2022-09-12T16:07:54.257Z,3.50
2022-09-12T16:10:24.045Z,4.00
2022-09-12T16:12:51.438Z,5.63
2022-09-12T16:15:20.717Z,3.53
2022-09-12T16:17:47.585Z,4.47
2022-09-12T16:20:14.569Z,4.72
2022-09-12T16:22:41.916Z,5.43
2022-09-12T16:25:09.412Z,4.47
2022-09-12T16:27:37.470Z,4.75
2022-09-12T16:30:06.423Z,5.53
2022-09-12T16:32:33.359Z,3.95
2022-09-12T16:35:00.356Z,4.70
2022-09-12T16:37:27.317Z,3.67
2022-09-12T16:39:54.258Z,4.05
2022-09-12T16:42:21.071Z,6.47
2022-09-12T16:44:47.895Z,6.97
2022-09-12T16:47:15.149Z,5.95
2022-09-12T16:49:42.072Z,4.65
2022-09-12T16:52:08.957Z,3.58
2022-09-12T16:54:35.771Z,4.77
2022-09-12T16:57:05.111Z,4.00
2022-09-12T16:59:32.294Z,5.63
2022-09-12T17:01:59.170Z,5.82
2022-09-12T17:04:26.036Z,9.40
2022-09-12T17:06:52.977Z,4.80
2022-09-12T17:09:19.805Z,4.82
2022-09-12T17:11:47.885Z,5.18
2022-09-12T17:14:14.720Z,5.93
2022-09-12T17:16:47.995Z,5.30
2022-09-12T17:19:29.555Z,4.07
2022-09-12T17:21:57.430Z,4.90
2022-09-12T17:24:25.305Z,5.25
2022-09-12T17:26:53.506Z,4.35
2022-09-12T17:29:20.696Z,5.25
2022-09-12T17:31:48.011Z,6.00
2022-09-12T17:34:16.245Z,4.28
2022-09-12T17:36:48.318Z,5.03
2022-09-12T17:39:15.490Z,4.63
2022-09-12T17:41:42.820Z,4.70
2022-09-12T17:44:12.726Z,7.00
2022-09-12T17:46:40.429Z,5.07
2022-09-12T17:49:11.452Z,6.25
2022-09-12T17:51:39.255Z,5.30
2022-09-12T17:54:11.759Z,5.25
2022-09-12T17:56:39.643Z,4.80
2022-09-12T17:59:08.374Z,5.43
2022-09-12T18:01:53.756Z,6.57
2022-09-12T18:04:20.675Z,6.07
2022-09-12T18:06:49.116Z,6.22
2022-09-12T18:09:24.847Z,5.73
2022-09-12T18:11:52.031Z,5.07
2022-09-12T18:14:19.724Z,4.90
2022-09-12T18:16:47.539Z,5.53
2022-09-12T18:19:14.891Z,5.32
2022-09-12T18:21:41.828Z,4.70
2022-09-12T18:24:10.367Z,6.53
2022-09-12T18:26:37.150Z,5.38
2022-09-12T18:29:03.911Z,5.93
2022-09-12T18:31:31.197Z,6.30
2022-09-12T18:34:02.482Z,5.63
2022-09-12T18:36:30.436Z,7.72
2022-09-12T18:38:58.541Z,7.47
2022-09-12T18:41:26.071Z,5.38
2022-09-12T18:43:57.578Z,7.18
2022-09-12T18:46:24.992Z,4.63
2022-09-12T18:48:51.865Z,5.05
2022-09-12T18:51:20.963Z,4.70
2022-09-12T18:53:52.944Z,6.45
2022-09-12T18:56:21.033Z,4.60
2022-09-12T18:58:53.329Z,5.37
2022-09-12T19:01:28.381Z,5.20
2022-09-12T19:03:55.761Z,4.75
2022-09-12T19:06:31.128Z,5.25
2022-09-12T19:09:00.859Z,5.65
2022-09-12T19:11:29.668Z,5.93
2022-09-12T19:13:57.080Z,5.00
2022-09-12T19:16:26.808Z,4.88
2022-09-12T19:18:55.578Z,4.75
2022-09-12T19:21:30.318Z,5.65
2022-09-12T19:24:05.874Z,5.13
2022-09-12T19:26:33.612Z,6.50
2022-09-12T19:29:02.858Z,4.88
2022-09-12T19:31:30.402Z,5.43
2022-09-12T19:34:01.994Z,4.78
2022-09-12T19:36:46.789Z,6.97
2022-09-12T19:39:15.251Z,5.93
2022-09-12T19:41:42.535Z,6.32
2022-09-12T19:44:09.360Z,5.45
2022-09-12T19:46:36.223Z,8.35
2022-09-12T19:49:03.670Z,5.67
2022-09-12T19:51:31.182Z,7.90
2022-09-12T19:53:57.919Z,5.80
2022-09-12T19:56:24.722Z,6.43
2022-09-12T19:58:56.029Z,8.07
2022-09-12T20:01:28.183Z,7.37
2022-09-12T20:03:56.000Z,6.15
2022-09-12T20:06:22.874Z,6.50
2022-09-12T20:08:49.785Z,7.05
2022-09-12T20:11:21.544Z,6.00
2022-09-12T20:13:48.330Z,8.00
2022-09-12T20:16:21.765Z,5.70
2022-09-12T20:18:55.426Z,6.68
2022-09-12T20:21:25.387Z,8.95
2022-09-12T20:23:52.661Z,6.07
2022-09-12T20:26:20.488Z,6.47
2022-09-12T20:28:47.846Z,6.97
2022-09-12T20:31:15.884Z,8.05
2022-09-12T20:33:42.828Z,7.00
2022-09-12T20:36:12.869Z,7.93
2022-09-12T20:38:41.092Z,6.40
2022-09-12T20:41:09.934Z,6.72
2022-09-12T20:43:38.558Z,6.50
2022-09-12T20:46:10.259Z,8.52
2022-09-12T20:48:39.960Z,7.43
2022-09-12T20:51:07.552Z,8.00
2022-09-12T20:53:35.678Z,7.20
2022-09-12T20:56:05.237Z,6.40
2022-09-12T20:58:32.707Z,6.95
2022-09-12T21:01:00.357Z,7.88
2022-09-12T21:03:27.124Z,6.83
2022-09-12T21:05:54.048Z,7.28
2022-09-12T21:08:20.887Z,9.30
2022-09-12T21:10:47.624Z,6.72
2022-09-12T21:13:14.416Z,8.75
2022-09-12T21:15:41.928Z,8.73
2022-09-12T21:18:09.320Z,7.88
2022-09-12T21:20:36.112Z,9.25
2022-09-12T21:23:02.899Z,6.47
2022-09-12T21:25:30.319Z,6.80
2022-09-12T21:27:57.223Z,9.73
2022-09-12T21:30:23.938Z,7.88
2022-09-12T21:32:50.721Z,7.70
2022-09-12T21:35:17.461Z,8.32
2022-09-12T21:37:44.193Z,7.35
2022-09-12T21:40:11.080Z,6.70
2022-09-12T21:42:37.862Z,8.57
2022-09-12T21:45:05.054Z,8.82
2022-09-12T21:47:31.969Z,6.72
2022-09-12T21:49:58.707Z,8.27
2022-09-12T21:52:25.607Z,7.20
2022-09-12T21:54:52.406Z,7.30
2022-09-12T21:57:19.094Z,6.43
2022-09-12T21:59:45.898Z,9.20
2022-09-12T22:02:13.667Z,9.82
2022-09-12T22:04:40.428Z,7.43
2022-09-12T22:07:07.613Z,8.23
2022-09-12T22:09:34.852Z,7.35
2022-09-12T22:12:02.338Z,8.98
2022-09-12T22:14:29.552Z,8.80
2022-09-12T22:16:56.760Z,8.70
2022-09-12T22:19:23.511Z,11.00
2022-09-12T22:22:09.129Z,9.55
2022-09-12T22:24:35.971Z,8.20
2022-09-12T22:27:05.043Z,9.40
2022-09-12T22:29:32.357Z,8.10
2022-09-12T22:32:00.552Z,8.43
2022-09-12T22:34:28.637Z,6.88
2022-09-12T22:36:55.781Z,6.80
2022-09-12T22:39:22.951Z,7.75
2022-09-12T22:41:49.880Z,6.83
2022-09-12T22:44:17.738Z,8.57
2022-09-12T22:46:44.967Z,7.57
2022-09-12T22:49:12.710Z,6.60
2022-09-12T22:51:39.754Z,7.10
2022-09-12T22:54:07.307Z,6.60
2022-09-12T22:56:34.193Z,8.15
2022-09-12T22:59:01.264Z,8.93
2022-09-12T23:01:28.150Z,8.15
2022-09-12T23:03:55.156Z,8.63
2022-09-12T23:06:21.864Z,7.90
2022-09-12T23:08:48.614Z,7.72
2022-09-12T23:11:17.298Z,7.70
2022-09-12T23:13:45.989Z,7.78
2022-09-12T23:16:26.704Z,8.05
2022-09-12T23:18:53.637Z,7.00
2022-09-12T23:21:21.798Z,8.65
2022-09-12T23:23:49.016Z,7.88
2022-09-12T23:26:19.248Z,7.93
2022-09-12T23:28:50.280Z,8.38
2022-09-12T23:31:17.154Z,7.10
2022-09-12T23:33:44.325Z,6.85
2022-09-12T23:36:14.331Z,8.35
2022-09-12T23:38:43.380Z,8.20
2022-09-12T23:41:11.578Z,7.65
2022-09-12T23:43:38.908Z,9.27
2022-09-12T23:46:06.775Z,10.05
2022-09-12T23:48:34.031Z,8.00
2022-09-12T23:51:01.936Z,12.13
2022-09-12T23:53:29.294Z,7.63
2022-09-12T23:55:55.973Z,7.23
2022-09-12T23:58:23.178Z,8.10
